Aviation Digital Data Service (ADDS)

Output produced by METARs form (1354 UTC 24 August 2019)
found at http://www.aviationweather.gov/metar/data/
 
Forecast for: SBFL (FLORIANOPOLIS AR, BR)
Text: TAF SBFL 240300Z 2406/2506 18008KT 9999 BKN040 TX18/2417Z TN14/2505Z
Forecast period: 0600 to 2000 UTC 24 August 2019
Forecast type: FROM: standard forecast or significant change
Winds: from the S (180 degrees) at 9 MPH (8 knots; 4.1 m/s)
Visibility: 6 or more miles 10+ km)
Ceiling: 4000 feet AGL
Clouds: broken clouds at 4000 feet AGL
Weather: no significant weather forecast for this period
Text: TEMPO 2413/2420 16012KT FEW035
Forecast period: 1300 to 2000 UTC 24 August 2019
Forecast type: TEMPORARY: The following changes expected for less than half the time period
Winds: from the SSE (160 degrees) at 14 MPH (12 knots; 6.2 m/s)
Visibility: missing
Ceiling: at least 12,000 feet AGL
Clouds: few clouds at 3500 feet AGL
Weather: no significant weather forecast for this period
Text: BECMG 2420/2422 12006KT RMK PCX
Forecast period: 2000 UTC 24 August 2019 to 0600 UTC 25 August 2019
Forecast type: BECOMING: Conditions expected to become as follows by 2200 UTC 24 August 2019
Winds: from the ESE (120 degrees) at 7 MPH (6 knots; 3.1 m/s)
Visibility: 6 or more miles 10+ km)
Ceiling: 4000 feet AGL
Clouds: broken clouds at 4000 feet AGL
Weather: no significant weather forecast for this period